Time,TemperatureF,DewpointF,PressureIn,WindDirection,WindDirectionDegrees,WindSpeedMPH,WindSpeedGustMPH,Humidity,HourlyPrecipIn,Conditions,Clouds,dailyrainin,SoftwareType,DateUTC
2013-01-26 00:00:00,23.7,18.5,30.05,SW,225,2.0,2.0,80,0.00,,,0.00,meteohub,2013-01-26 05:00:00,
2013-01-26 00:01:00,23.7,18.5,30.04,NE,45,2.0,2.0,80,0.00,,,0.00,meteohub,2013-01-26 05:01:00,
2013-01-26 00:02:00,23.7,18.5,30.04,NE,45,2.0,2.0,80,0.00,,,0.00,meteohub,2013-01-26 05:02:00,
2013-01-26 00:07:00,23.7,18.5,30.05,NE,45,1.0,2.0,80,0.00,,,0.00,meteohub,2013-01-26 05:07:00,
2013-01-26 00:12:00,23.5,18.3,30.05,North,0,2.0,3.0,80,0.00,,,0.00,meteohub,2013-01-26 05:12:00,
2013-01-26 00:17:00,23.5,18.3,30.05,SW,225,2.0,3.0,80,0.00,,,0.00,meteohub,2013-01-26 05:17:00,
2013-01-26 00:22:00,23.4,18.1,30.05,South,180,2.0,3.0,80,0.00,,,0.00,meteohub,2013-01-26 05:22:00,
2013-01-26 00:27:00,23.4,18.1,30.05,NE,45,2.0,3.0,80,0.00,,,0.00,meteohub,2013-01-26 05:27:00,
2013-01-26 00:32:00,23.4,18.1,30.05,NE,45,2.0,3.0,80,0.00,,,0.00,meteohub,2013-01-26 05:32:00,
2013-01-26 00:37:00,23.2,18.0,30.05,South,180,2.0,3.0,80,0.00,,,0.00,meteohub,2013-01-26 05:37:00,
2013-01-26 00:42:00,23.0,17.8,30.05,South,180,2.0,3.0,80,0.00,,,0.00,meteohub,2013-01-26 05:42:00,
2013-01-26 00:47:00,22.6,17.8,30.05,North,0,2.0,4.0,81,0.00,,,0.00,meteohub,2013-01-26 05:47:00,
2013-01-26 00:52:00,22.6,17.8,30.05,SW,225,1.0,4.0,81,0.00,,,0.00,meteohub,2013-01-26 05:52:00,
2013-01-26 00:57:00,22.6,18.0,30.06,West,270,1.0,4.0,82,0.00,,,0.00,meteohub,2013-01-26 05:57:00,
2013-01-26 01:02:00,22.6,18.0,30.05,South,180,2.0,3.0,82,0.00,,,0.00,meteohub,2013-01-26 06:02:00,
2013-01-26 01:07:00,22.6,18.0,30.05,South,180,2.0,3.0,82,0.00,,,0.00,meteohub,2013-01-26 06:07:00,
2013-01-26 01:12:00,23.5,19.2,30.05,SE,135,3.0,3.0,83,0.00,,,0.00,meteohub,2013-01-26 06:12:00,
2013-01-26 01:17:00,24.3,20.1,30.05,NE,45,2.0,3.0,84,0.00,,,0.00,meteohub,2013-01-26 06:17:00,
2013-01-26 01:22:00,25.2,21.0,30.05,SE,135,3.0,3.0,84,0.00,,,0.00,meteohub,2013-01-26 06:22:00,
2013-01-26 01:27:00,25.5,21.4,30.05,South,180,5.0,5.0,84,0.00,,,0.00,meteohub,2013-01-26 06:27:00,
2013-01-26 01:32:00,26.4,22.5,30.05,ENE,68,4.0,5.0,85,0.00,,,0.00,meteohub,2013-01-26 06:32:00,
2013-01-26 01:37:00,28.2,24.3,30.05,NW,315,2.0,5.0,85,0.00,,,0.00,meteohub,2013-01-26 06:37:00,
2013-01-26 01:42:00,29.1,26.1,30.05,East,90,0.0,5.0,88,0.00,,,0.00,meteohub,2013-01-26 06:42:00,
2013-01-26 01:47:00,29.1,25.7,30.05,SE,135,4.0,4.0,87,0.00,,,0.00,meteohub,2013-01-26 06:47:00,
2013-01-26 01:52:00,29.8,26.4,30.05,SW,225,4.0,4.0,87,0.00,,,0.00,meteohub,2013-01-26 06:52:00,
2013-01-26 01:57:00,30.9,27.0,30.05,SE,135,7.0,7.0,85,0.00,,,0.00,meteohub,2013-01-26 06:57:00,
2013-01-26 02:02:00,32.4,27.9,30.06,South,180,3.0,7.0,83,0.00,,,0.00,meteohub,2013-01-26 07:02:00,
2013-01-26 02:07:00,32.9,27.7,30.06,SE,135,4.0,7.0,81,0.00,,,0.00,meteohub,2013-01-26 07:07:00,
2013-01-26 02:12:00,33.4,27.3,30.06,NE,45,5.0,9.0,78,0.00,,,0.00,meteohub,2013-01-26 07:12:00,
2013-01-26 02:17:00,33.6,26.8,30.06,NW,315,5.0,9.0,76,0.00,,,0.00,meteohub,2013-01-26 07:17:00,
2013-01-26 02:22:00,33.8,26.4,30.06,NW,315,7.0,10.0,74,0.00,,,0.00,meteohub,2013-01-26 07:22:00,
2013-01-26 02:27:00,34.0,26.2,30.06,NE,45,8.0,11.0,73,0.00,,,0.00,meteohub,2013-01-26 07:27:00,
2013-01-26 02:32:00,34.3,26.2,30.07,WNW,293,8.0,11.0,72,0.00,,,0.00,meteohub,2013-01-26 07:32:00,
2013-01-26 02:37:00,34.5,25.7,30.06,North,0,4.0,14.0,70,0.00,,,0.00,meteohub,2013-01-26 07:37:00,
2013-01-26 02:42:00,34.5,25.7,30.06,NE,45,5.0,14.0,70,0.00,,,0.00,meteohub,2013-01-26 07:42:00,
2013-01-26 02:47:00,34.5,25.3,30.07,South,180,5.0,8.0,69,0.00,,,0.00,meteohub,2013-01-26 07:47:00,
2013-01-26 02:52:00,34.5,25.3,30.07,NE,45,3.0,7.0,69,0.00,,,0.00,meteohub,2013-01-26 07:52:00,
2013-01-26 02:57:00,34.5,25.3,30.06,South,180,7.0,7.0,69,0.00,,,0.00,meteohub,2013-01-26 07:57:00,
2013-01-26 03:02:00,34.7,25.5,30.06,SE,135,3.0,11.0,69,0.00,,,0.00,meteohub,2013-01-26 08:02:00,
2013-01-26 03:07:00,34.7,25.5,30.07,SE,135,3.0,11.0,69,0.00,,,0.00,meteohub,2013-01-26 08:07:00,
2013-01-26 03:12:00,34.7,25.2,30.07,NE,45,1.0,7.0,68,0.00,,,0.00,meteohub,2013-01-26 08:12:00,
2013-01-26 03:17:00,34.5,25.0,30.07,East,90,1.0,5.0,68,0.00,,,0.00,meteohub,2013-01-26 08:17:00,
2013-01-26 03:22:00,34.3,25.2,30.07,West,270,2.0,5.0,69,0.00,,,0.00,meteohub,2013-01-26 08:22:00,
2013-01-26 03:27:00,33.6,25.2,30.07,NW,315,6.0,6.0,71,0.00,,,0.00,meteohub,2013-01-26 08:27:00,
2013-01-26 03:32:00,33.6,25.2,30.06,NE,45,5.0,8.0,71,0.00,,,0.00,meteohub,2013-01-26 08:32:00,
2013-01-26 03:37:00,34.0,24.8,30.06,North,0,4.0,8.0,69,0.00,,,0.00,meteohub,2013-01-26 08:37:00,
2013-01-26 03:42:00,34.2,24.6,30.07,NW,315,5.0,8.0,68,0.00,,,0.00,meteohub,2013-01-26 08:42:00,
2013-01-26 03:47:00,34.0,24.6,30.07,NE,45,7.0,8.0,68,0.00,,,0.00,meteohub,2013-01-26 08:47:00,
2013-01-26 03:52:00,34.0,24.3,30.07,NE,45,8.0,9.0,67,0.00,,,0.00,meteohub,2013-01-26 08:52:00,
2013-01-26 03:57:00,34.0,24.3,30.08,NW,315,2.0,9.0,67,0.00,,,0.00,meteohub,2013-01-26 08:57:00,
2013-01-26 04:02:00,34.0,23.9,30.07,NW,315,9.0,10.0,66,0.00,,,0.00,meteohub,2013-01-26 09:02:00,
2013-01-26 04:07:00,34.0,23.9,30.08,NE,45,4.0,10.0,66,0.00,,,0.00,meteohub,2013-01-26 09:07:00,
2013-01-26 04:12:00,33.8,23.4,30.07,West,270,5.0,12.0,65,0.00,,,0.00,meteohub,2013-01-26 09:12:00,
2013-01-26 04:17:00,33.8,23.4,30.08,South,180,4.0,12.0,65,0.00,,,0.00,meteohub,2013-01-26 09:17:00,
2013-01-26 04:22:00,33.6,23.5,30.08,North,0,10.0,11.0,66,0.00,,,0.00,meteohub,2013-01-26 09:22:00,
2013-01-26 04:27:00,33.4,23.4,30.08,NE,45,8.0,11.0,66,0.00,,,0.00,meteohub,2013-01-26 09:27:00,
2013-01-26 04:32:00,33.4,23.0,30.08,NW,315,10.0,11.0,65,0.00,,,0.00,meteohub,2013-01-26 09:32:00,
2013-01-26 04:37:00,33.4,23.0,30.08,North,0,15.0,15.0,65,0.00,,,0.00,meteohub,2013-01-26 09:37:00,
2013-01-26 04:42:00,33.4,23.0,30.09,NW,315,10.0,15.0,65,0.00,,,0.00,meteohub,2013-01-26 09:42:00,
2013-01-26 04:47:00,33.4,23.0,30.09,North,0,8.0,15.0,65,0.00,,,0.00,meteohub,2013-01-26 09:47:00,
2013-01-26 04:52:00,33.4,23.0,30.09,NNW,338,10.0,15.0,65,0.00,,,0.00,meteohub,2013-01-26 09:52:00,
2013-01-26 04:57:00,33.3,22.8,30.09,NNW,338,4.0,15.0,65,0.00,,,0.00,meteohub,2013-01-26 09:57:00,
2013-01-26 05:02:00,33.3,22.8,30.09,North,0,6.0,15.0,65,0.00,,,0.00,meteohub,2013-01-26 10:02:00,
2013-01-26 05:07:00,33.3,22.8,30.09,North,0,6.0,11.0,65,0.00,,,0.00,meteohub,2013-01-26 10:07:00,
2013-01-26 05:12:00,33.3,23.2,30.10,WNW,293,2.0,11.0,66,0.00,,,0.00,meteohub,2013-01-26 10:12:00,
2013-01-26 05:17:00,33.1,23.4,30.10,NE,45,0.0,6.0,67,0.00,,,0.00,meteohub,2013-01-26 10:17:00,
2013-01-26 05:22:00,32.7,23.0,30.10,SE,135,2.0,6.0,67,0.00,,,0.00,meteohub,2013-01-26 10:22:00,
2013-01-26 05:27:00,32.5,23.2,30.11,South,180,4.0,4.0,68,0.00,,,0.00,meteohub,2013-01-26 10:27:00,
2013-01-26 05:32:00,32.7,23.0,30.11,South,180,2.0,4.0,67,0.00,,,0.00,meteohub,2013-01-26 10:32:00,
2013-01-26 05:37:00,32.9,23.2,30.11,South,180,2.0,4.0,67,0.00,,,0.00,meteohub,2013-01-26 10:37:00,
2013-01-26 05:42:00,32.9,23.2,30.11,NE,45,2.0,4.0,67,0.00,,,0.00,meteohub,2013-01-26 10:42:00,
2013-01-26 05:47:00,32.9,23.2,30.11,South,180,2.0,5.0,67,0.00,,,0.00,meteohub,2013-01-26 10:47:00,
2013-01-26 05:52:00,32.9,22.8,30.11,South,180,2.0,5.0,66,0.00,,,0.00,meteohub,2013-01-26 10:52:00,
2013-01-26 05:57:00,32.9,22.8,30.12,North,0,3.0,4.0,66,0.00,,,0.00,meteohub,2013-01-26 10:57:00,
2013-01-26 06:02:00,32.9,22.8,30.12,North,0,4.0,4.0,66,0.00,,,0.00,meteohub,2013-01-26 11:02:00,
2013-01-26 06:07:00,32.9,22.8,30.12,SW,225,7.0,7.0,66,0.00,,,0.00,meteohub,2013-01-26 11:07:00,
2013-01-26 06:12:00,32.9,22.5,30.12,South,180,4.0,12.0,65,0.00,,,0.00,meteohub,2013-01-26 11:12:00,
2013-01-26 06:17:00,32.9,22.5,30.12,NW,315,7.0,14.0,65,0.00,,,0.00,meteohub,2013-01-26 11:17:00,
2013-01-26 06:22:00,32.9,22.1,30.12,SW,225,5.0,14.0,64,0.00,,,0.00,meteohub,2013-01-26 11:22:00,
2013-01-26 06:27:00,32.7,22.3,30.13,NE,45,2.0,14.0,65,0.00,,,0.00,meteohub,2013-01-26 11:27:00,
2013-01-26 06:32:00,32.7,22.3,30.13,East,90,3.0,9.0,65,0.00,,,0.00,meteohub,2013-01-26 11:32:00,
2013-01-26 06:37:00,32.5,22.1,30.13,North,0,7.0,7.0,65,0.00,,,0.00,meteohub,2013-01-26 11:37:00,
2013-01-26 06:42:00,32.4,21.9,30.14,NW,315,11.0,11.0,65,0.00,,,0.00,meteohub,2013-01-26 11:42:00,
2013-01-26 06:47:00,32.2,22.1,30.14,NW,315,4.0,11.0,66,0.00,,,0.00,meteohub,2013-01-26 11:47:00,
2013-01-26 06:52:00,32.2,22.1,30.14,North,0,3.0,11.0,66,0.00,,,0.00,meteohub,2013-01-26 11:52:00,
2013-01-26 06:57:00,32.0,21.9,30.14,South,180,7.0,11.0,66,0.00,,,0.00,meteohub,2013-01-26 11:57:00,
2013-01-26 07:02:00,32.0,21.6,30.15,WNW,293,14.0,14.0,65,0.00,,,0.00,meteohub,2013-01-26 12:02:00,
2013-01-26 07:07:00,32.0,21.6,30.15,WNW,293,14.0,14.0,65,0.00,,,0.00,meteohub,2013-01-26 12:07:00,
2013-01-26 07:12:00,31.5,21.4,30.16,NE,45,4.0,14.0,66,0.00,,,0.00,meteohub,2013-01-26 12:12:00,
2013-01-26 07:17:00,31.5,21.4,30.16,North,0,15.0,15.0,66,0.00,,,0.00,meteohub,2013-01-26 12:17:00,
2013-01-26 07:22:00,31.5,21.0,30.16,North,0,7.0,15.0,65,0.00,,,0.00,meteohub,2013-01-26 12:22:00,
2013-01-26 07:27:00,31.3,20.5,30.16,NW,315,9.0,20.0,64,0.00,,,0.00,meteohub,2013-01-26 12:27:00,
2013-01-26 07:32:00,31.3,20.5,30.17,North,0,12.0,20.0,64,0.00,,,0.00,meteohub,2013-01-26 12:32:00,
2013-01-26 07:37:00,31.1,20.3,30.17,NW,315,12.0,20.0,64,0.00,,,0.00,meteohub,2013-01-26 12:37:00,
2013-01-26 07:42:00,30.9,19.8,30.17,NW,315,4.0,18.0,63,0.00,,,0.00,meteohub,2013-01-26 12:42:00,
2013-01-26 07:46:00,30.9,19.4,30.17,SW,225,8.0,15.0,62,0.00,,,0.00,meteohub,2013-01-26 12:46:00,
2013-01-26 07:52:00,30.9,19.4,30.17,NW,315,4.0,15.0,62,0.00,,,0.00,meteohub,2013-01-26 12:52:00,
2013-01-26 07:57:00,30.9,19.0,30.18,NW,315,4.0,14.0,61,0.00,,,0.00,meteohub,2013-01-26 12:57:00,
2013-01-26 08:02:00,30.9,19.0,30.17,NE,45,7.0,14.0,61,0.00,,,0.00,meteohub,2013-01-26 13:02:00,
2013-01-26 08:07:00,30.9,19.0,30.18,SW,225,4.0,14.0,61,0.00,,,0.00,meteohub,2013-01-26 13:07:00,
2013-01-26 08:12:00,30.9,19.0,30.18,NE,45,6.0,11.0,61,0.00,,,0.00,meteohub,2013-01-26 13:12:00,
2013-01-26 08:17:00,31.6,19.4,30.18,NE,45,3.0,11.0,60,0.00,,,0.00,meteohub,2013-01-26 13:17:00,
2013-01-26 08:22:00,32.4,19.2,30.19,East,90,2.0,8.0,58,0.00,,,0.00,meteohub,2013-01-26 13:22:00,
2013-01-26 08:27:00,32.5,19.0,30.19,South,180,4.0,8.0,57,0.00,,,0.00,meteohub,2013-01-26 13:27:00,
2013-01-26 08:32:00,32.5,19.0,30.19,South,180,6.0,8.0,57,0.00,,,0.00,meteohub,2013-01-26 13:32:00,
2013-01-26 08:37:00,32.4,18.9,30.19,NE,45,4.0,8.0,57,0.00,,,0.00,meteohub,2013-01-26 13:37:00,
2013-01-26 08:42:00,32.2,18.3,30.19,NW,315,4.0,8.0,56,0.00,,,0.00,meteohub,2013-01-26 13:42:00,
2013-01-26 08:47:00,32.0,18.5,30.20,NW,315,2.0,8.0,57,0.00,,,0.00,meteohub,2013-01-26 13:47:00,
2013-01-26 08:52:00,32.0,18.5,30.20,North,0,2.0,8.0,57,0.00,,,0.00,meteohub,2013-01-26 13:52:00,
2013-01-26 08:57:00,31.8,18.7,30.20,NW,315,4.0,8.0,58,0.00,,,0.00,meteohub,2013-01-26 13:57:00,
2013-01-26 09:02:00,31.8,18.7,30.21,NE,45,2.0,5.0,58,0.00,,,0.00,meteohub,2013-01-26 14:02:00,
2013-01-26 09:06:00,31.8,18.7,30.20,NE,45,2.0,4.0,58,0.00,,,0.00,meteohub,2013-01-26 14:06:00,
2013-01-26 09:11:00,32.0,18.9,30.21,ENE,68,2.0,5.0,58,0.00,,,0.00,meteohub,2013-01-26 14:11:00,
2013-01-26 09:17:00,32.2,18.7,30.21,SW,225,1.0,6.0,57,0.00,,,0.00,meteohub,2013-01-26 14:17:00,
2013-01-26 09:22:00,32.5,19.4,30.21,South,180,3.0,6.0,58,0.00,,,0.00,meteohub,2013-01-26 14:22:00,
2013-01-26 09:27:00,32.7,19.2,30.22,East,90,2.0,6.0,57,0.00,,,0.00,meteohub,2013-01-26 14:27:00,
2013-01-26 09:32:00,32.9,19.4,30.21,SE,135,0.0,4.0,57,0.00,,,0.00,meteohub,2013-01-26 14:32:00,
2013-01-26 09:37:00,33.4,19.8,30.22,NE,45,1.0,3.0,57,0.00,,,0.00,meteohub,2013-01-26 14:37:00,
2013-01-26 09:42:00,33.6,19.9,30.22,NE,45,2.0,2.0,57,0.00,,,0.00,meteohub,2013-01-26 14:42:00,
2013-01-26 09:47:00,34.0,19.9,30.22,NW,315,2.0,3.0,56,0.00,,,0.00,meteohub,2013-01-26 14:47:00,
2013-01-26 09:52:00,34.3,19.8,30.22,NE,45,4.0,4.0,55,0.00,,,0.00,meteohub,2013-01-26 14:52:00,
2013-01-26 09:57:00,34.9,20.3,30.22,NW,315,2.0,4.0,55,0.00,,,0.00,meteohub,2013-01-26 14:57:00,
2013-01-26 10:02:00,35.1,20.1,30.22,NE,45,3.0,4.0,54,0.00,,,0.00,meteohub,2013-01-26 15:02:00,
2013-01-26 10:07:00,35.2,20.3,30.22,South,180,2.0,5.0,54,0.00,,,0.00,meteohub,2013-01-26 15:07:00,
2013-01-26 10:12:00,35.1,20.1,30.22,SW,225,5.0,6.0,54,0.00,,,0.00,meteohub,2013-01-26 15:12:00,
2013-01-26 10:17:00,34.9,19.9,30.22,South,180,4.0,7.0,54,0.00,,,0.00,meteohub,2013-01-26 15:17:00,
2013-01-26 10:22:00,34.9,19.9,30.23,South,180,2.0,8.0,54,0.00,,,0.00,meteohub,2013-01-26 15:22:00,
2013-01-26 10:27:00,35.2,20.3,30.23,South,180,4.0,8.0,54,0.00,,,0.00,meteohub,2013-01-26 15:27:00,
2013-01-26 10:32:00,35.4,20.5,30.23,South,180,6.0,8.0,54,0.00,,,0.00,meteohub,2013-01-26 15:32:00,
2013-01-26 10:37:00,35.8,20.3,30.23,NE,45,2.0,8.0,53,0.00,,,0.00,meteohub,2013-01-26 15:37:00,
2013-01-26 10:42:00,36.9,21.4,30.23,SSW,203,3.0,8.0,53,0.00,,,0.00,meteohub,2013-01-26 15:42:00,
2013-01-26 10:47:00,37.9,23.7,30.23,SSW,203,6.0,8.0,56,0.00,,,0.00,meteohub,2013-01-26 15:47:00,
2013-01-26 10:52:00,37.4,22.6,30.23,North,0,3.0,8.0,55,0.00,,,0.00,meteohub,2013-01-26 15:52:00,
2013-01-26 10:57:00,37.4,22.6,30.23,North,0,3.0,8.0,55,0.00,,,0.00,meteohub,2013-01-26 15:57:00,
2013-01-26 11:02:00,38.7,23.9,30.23,North,0,8.0,8.0,55,0.00,,,0.00,meteohub,2013-01-26 16:02:00,
2013-01-26 11:07:00,39.2,23.5,30.23,NW,315,4.0,8.0,53,0.00,,,0.00,meteohub,2013-01-26 16:07:00,
2013-01-26 11:12:00,38.7,23.0,30.22,NW,315,4.0,8.0,53,0.00,,,0.00,meteohub,2013-01-26 16:12:00,
2013-01-26 11:17:00,38.8,23.5,30.22,WSW,248,10.0,10.0,54,0.00,,,0.00,meteohub,2013-01-26 16:17:00,
2013-01-26 11:22:00,39.0,23.7,30.23,NW,315,5.0,10.0,54,0.00,,,0.00,meteohub,2013-01-26 16:22:00,
2013-01-26 11:27:00,38.7,23.0,30.22,WNW,293,8.0,10.0,53,0.00,,,0.00,meteohub,2013-01-26 16:27:00,
2013-01-26 11:32:00,38.7,23.0,30.22,WNW,293,8.0,10.0,53,0.00,,,0.00,meteohub,2013-01-26 16:32:00,
2013-01-26 11:37:00,39.7,24.4,30.22,NE,45,8.0,9.0,54,0.00,,,0.00,meteohub,2013-01-26 16:37:00,
2013-01-26 11:42:00,40.1,24.3,30.21,NW,315,9.0,9.0,53,0.01,,,0.01,meteohub,2013-01-26 16:42:00,
2013-01-26 11:47:00,40.5,24.6,30.22,NW,315,8.0,9.0,53,0.02,,,0.02,meteohub,2013-01-26 16:47:00,
2013-01-26 11:52:00,40.5,24.3,30.22,North,0,5.0,11.0,52,0.02,,,0.02,meteohub,2013-01-26 16:52:00,
2013-01-26 11:57:00,40.5,24.3,30.22,North,0,5.0,11.0,52,0.02,,,0.02,meteohub,2013-01-26 16:57:00,
2013-01-26 15:13:00,43.2,25.7,30.20,NW,315,4.0,-999.0,50,-99.99,,,0.02,meteohub,2013-01-26 20:13:00,
2013-01-26 15:18:00,43.2,25.7,30.21,North,0,7.0,7.0,50,0.00,,,0.05,meteohub,2013-01-26 20:18:00,
2013-01-26 15:23:00,43.2,25.7,30.21,North,0,7.0,7.0,50,0.00,,,0.05,meteohub,2013-01-26 20:23:00,
2013-01-26 15:28:00,42.4,25.2,30.22,North,0,11.0,11.0,50,0.00,,,0.05,meteohub,2013-01-26 20:28:00,
2013-01-26 15:33:00,41.5,24.3,30.22,NNW,338,3.0,11.0,50,0.00,,,0.05,meteohub,2013-01-26 20:33:00,
2013-01-26 15:38:00,41.2,23.9,30.22,South,180,3.0,11.0,50,0.00,,,0.05,meteohub,2013-01-26 20:38:00,
2013-01-26 15:43:00,40.6,24.4,30.22,SE,135,8.0,11.0,52,0.00,,,0.05,meteohub,2013-01-26 20:43:00,
2013-01-26 15:48:00,41.0,24.8,30.23,NE,45,5.0,11.0,52,0.00,,,0.05,meteohub,2013-01-26 20:48:00,
2013-01-26 15:54:00,40.3,24.1,30.23,South,180,8.0,11.0,52,0.00,,,0.05,meteohub,2013-01-26 20:54:00,
2013-01-26 15:59:00,40.3,25.0,30.23,WSW,248,5.0,11.0,54,0.00,,,0.05,meteohub,2013-01-26 20:59:00,
2013-01-26 16:04:00,40.3,25.0,30.24,WSW,248,5.0,11.0,54,0.00,,,0.05,meteohub,2013-01-26 21:04:00,
2013-01-26 16:09:00,40.5,24.3,30.24,WNW,293,21.0,21.0,52,0.00,,,0.05,meteohub,2013-01-26 21:09:00,
2013-01-26 16:14:00,40.5,24.3,30.24,WNW,293,21.0,21.0,52,0.00,,,0.05,meteohub,2013-01-26 21:14:00,
2013-01-26 16:19:00,38.7,23.9,30.24,SE,135,5.0,21.0,55,0.00,,,0.05,meteohub,2013-01-26 21:19:00,
2013-01-26 16:24:00,37.8,23.5,30.24,East,90,5.0,21.0,56,0.00,,,0.05,meteohub,2013-01-26 21:24:00,
2013-01-26 16:29:00,37.2,21.7,30.24,South,180,5.0,21.0,53,0.00,,,0.05,meteohub,2013-01-26 21:29:00,
2013-01-26 16:34:00,36.9,21.4,30.24,East,90,2.0,5.0,53,0.00,,,0.05,meteohub,2013-01-26 21:34:00,
2013-01-26 16:39:00,36.5,21.4,30.24,NE,45,2.0,5.0,54,0.00,,,0.05,meteohub,2013-01-26 21:39:00,
2013-01-26 16:44:00,36.3,21.2,30.24,SW,225,4.0,5.0,54,0.00,,,0.05,meteohub,2013-01-26 21:44:00,
2013-01-26 16:49:00,36.0,21.0,30.24,SSW,203,2.0,4.0,54,0.00,,,0.05,meteohub,2013-01-26 21:49:00,
2013-01-26 16:54:00,36.0,21.0,30.25,SSW,203,2.0,4.0,54,0.00,,,0.05,meteohub,2013-01-26 21:54:00,
2013-01-26 16:59:00,35.4,21.2,30.25,SW,225,2.0,4.0,56,0.00,,,0.05,meteohub,2013-01-26 21:59:00,
2013-01-26 17:04:00,35.2,21.2,30.25,North,0,2.0,4.0,56,0.00,,,0.05,meteohub,2013-01-26 22:04:00,
2013-01-26 17:09:00,35.1,21.0,30.25,NW,315,6.0,6.0,56,0.00,,,0.05,meteohub,2013-01-26 22:09:00,
2013-01-26 17:14:00,35.1,21.0,30.25,NW,315,6.0,6.0,56,0.00,,,0.05,meteohub,2013-01-26 22:14:00,
2013-01-26 17:19:00,34.7,20.7,30.26,SW,225,4.0,6.0,56,0.00,,,0.05,meteohub,2013-01-26 22:19:00,
2013-01-26 17:24:00,34.7,20.7,30.26,NW,315,4.0,6.0,56,0.00,,,0.05,meteohub,2013-01-26 22:24:00,
2013-01-26 17:29:00,34.3,20.3,30.26,North,0,14.0,14.0,56,0.00,,,0.05,meteohub,2013-01-26 22:29:00,
2013-01-26 17:34:00,34.3,20.3,30.26,SSE,158,8.0,11.0,56,0.00,,,0.05,meteohub,2013-01-26 22:34:00,
2013-01-26 17:39:00,34.3,20.3,30.26,SSE,158,8.0,14.0,56,0.00,,,0.05,meteohub,2013-01-26 22:39:00,
2013-01-26 17:44:00,34.0,19.9,30.26,West,270,4.0,14.0,56,0.00,,,0.05,meteohub,2013-01-26 22:44:00,
2013-01-26 17:49:00,33.8,20.1,30.27,North,0,4.0,8.0,57,0.00,,,0.05,meteohub,2013-01-26 22:49:00,
2013-01-26 17:54:00,33.6,20.5,30.27,NW,315,4.0,8.0,58,0.00,,,0.05,meteohub,2013-01-26 22:54:00,
2013-01-26 17:59:00,33.6,20.5,30.27,NW,315,4.0,8.0,58,0.00,,,0.05,meteohub,2013-01-26 22:59:00,
2013-01-26 18:04:00,33.6,20.5,30.28,NW,315,4.0,4.0,58,0.00,,,0.05,meteohub,2013-01-26 23:04:00,
2013-01-26 18:09:00,33.4,20.7,30.28,South,180,3.0,4.0,59,0.00,,,0.05,meteohub,2013-01-26 23:09:00,
2013-01-26 18:14:00,33.4,20.7,30.29,SE,135,2.0,4.0,59,0.00,,,0.05,meteohub,2013-01-26 23:14:00,
2013-01-26 18:19:00,33.1,20.3,30.29,NE,45,1.0,4.0,59,0.00,,,0.05,meteohub,2013-01-26 23:19:00,
2013-01-26 18:24:00,32.9,20.5,30.29,NW,315,8.0,8.0,60,0.00,,,0.05,meteohub,2013-01-26 23:24:00,
2013-01-26 18:29:00,32.7,20.8,30.29,SW,225,4.0,8.0,61,0.00,,,0.05,meteohub,2013-01-26 23:29:00,
2013-01-26 18:34:00,32.4,20.5,30.29,East,90,2.0,8.0,61,0.00,,,0.05,meteohub,2013-01-26 23:34:00,
2013-01-26 18:39:00,32.2,20.3,30.30,NW,315,6.0,8.0,61,0.00,,,0.05,meteohub,2013-01-26 23:39:00,
2013-01-26 18:44:00,31.8,20.3,30.30,North,0,6.0,7.0,62,0.00,,,0.05,meteohub,2013-01-26 23:44:00,
2013-01-26 18:49:00,31.6,20.1,30.30,NW,315,5.0,8.0,62,0.00,,,0.05,meteohub,2013-01-26 23:49:00,
2013-01-26 18:54:00,31.5,20.3,30.30,NE,45,3.0,10.0,63,0.00,,,0.05,meteohub,2013-01-26 23:54:00,
2013-01-26 18:59:00,31.1,19.9,30.30,NW,315,8.0,10.0,63,0.00,,,0.05,meteohub,2013-01-26 23:59:00,
2013-01-26 19:04:00,31.1,19.9,30.30,NW,315,8.0,10.0,63,0.00,,,0.05,meteohub,2013-01-27 00:04:00,
2013-01-26 19:09:00,31.1,19.6,30.30,NW,315,8.0,8.0,62,0.00,,,0.00,meteohub,2013-01-27 00:09:00,
2013-01-26 19:14:00,31.1,19.6,30.31,North,0,11.0,11.0,62,0.00,,,0.00,meteohub,2013-01-27 00:14:00,
2013-01-26 19:19:00,30.9,19.4,30.31,NE,45,6.0,9.0,62,0.00,,,0.00,meteohub,2013-01-27 00:19:00,
2013-01-26 19:24:00,30.6,19.0,30.32,WNW,293,7.0,11.0,62,0.00,,,0.00,meteohub,2013-01-27 00:24:00,
2013-01-26 19:29:00,30.6,19.0,30.32,North,0,8.0,11.0,62,0.00,,,0.00,meteohub,2013-01-27 00:29:00,
2013-01-26 19:34:00,30.6,18.7,30.32,South,180,4.0,17.0,61,0.00,,,0.00,meteohub,2013-01-27 00:34:00,
2013-01-26 19:39:00,30.6,18.7,30.31,East,90,8.0,17.0,61,0.00,,,0.00,meteohub,2013-01-27 00:39:00,
2013-01-26 19:44:00,30.4,18.5,30.32,WNW,293,8.0,17.0,61,0.00,,,0.00,meteohub,2013-01-27 00:44:00,
2013-01-26 19:49:00,30.2,18.3,30.32,WNW,293,6.0,12.0,61,0.00,,,0.00,meteohub,2013-01-27 00:49:00,
2013-01-26 19:54:00,30.0,18.5,30.33,West,270,5.0,11.0,62,0.00,,,0.00,meteohub,2013-01-27 00:54:00,
2013-01-26 20:00:00,29.8,18.5,30.33,North,0,5.0,9.0,62,0.00,,,0.00,meteohub,2013-01-27 01:00:00,
2013-01-26 20:05:00,29.5,18.5,30.33,SE,135,3.0,9.0,63,0.00,,,0.00,meteohub,2013-01-27 01:05:00,
2013-01-26 20:10:00,29.3,18.3,30.34,South,180,4.0,8.0,63,0.00,,,0.00,meteohub,2013-01-27 01:10:00,
2013-01-26 20:15:00,29.1,18.1,30.34,North,0,12.0,12.0,63,0.00,,,0.00,meteohub,2013-01-27 01:15:00,
2013-01-26 20:20:00,29.1,18.1,30.34,NE,45,11.0,11.0,63,0.00,,,0.00,meteohub,2013-01-27 01:20:00,
2013-01-26 20:25:00,29.1,18.1,30.34,NW,315,10.0,15.0,63,0.00,,,0.00,meteohub,2013-01-27 01:25:00,
2013-01-26 20:30:00,29.1,18.1,30.35,North,0,11.0,17.0,63,0.00,,,0.00,meteohub,2013-01-27 01:30:00,
2013-01-26 20:35:00,29.1,18.1,30.35,North,0,4.0,17.0,63,0.00,,,0.00,meteohub,2013-01-27 01:35:00,
2013-01-26 20:40:00,28.9,18.0,30.35,NE,45,8.0,17.0,63,0.00,,,0.00,meteohub,2013-01-27 01:40:00,
2013-01-26 20:45:00,28.8,17.8,30.35,North,0,6.0,11.0,63,0.00,,,0.00,meteohub,2013-01-27 01:45:00,
2013-01-26 20:50:00,28.8,17.8,30.35,WNW,293,9.0,15.0,63,0.00,,,0.00,meteohub,2013-01-27 01:50:00,
2013-01-26 20:55:00,28.8,17.8,30.36,NW,315,5.0,15.0,63,0.00,,,0.00,meteohub,2013-01-27 01:55:00,
2013-01-26 21:00:00,28.8,17.8,30.35,NE,45,5.0,15.0,63,0.00,,,0.00,meteohub,2013-01-27 02:00:00,
2013-01-26 21:05:00,28.8,17.8,30.35,NE,45,5.0,14.0,63,0.00,,,0.00,meteohub,2013-01-27 02:05:00,
2013-01-26 21:10:00,28.9,18.0,30.36,North,0,11.0,11.0,63,0.00,,,0.00,meteohub,2013-01-27 02:10:00,
2013-01-26 21:15:00,28.8,17.8,30.36,North,0,13.0,13.0,63,0.00,,,0.00,meteohub,2013-01-27 02:15:00,
2013-01-26 21:20:00,28.9,17.6,30.36,North,0,17.0,20.0,62,0.00,,,0.00,meteohub,2013-01-27 02:20:00,
2013-01-26 21:25:00,28.8,17.4,30.36,North,0,14.0,21.0,62,0.00,,,0.00,meteohub,2013-01-27 02:25:00,
2013-01-26 21:30:00,28.6,17.6,30.36,NNE,23,8.0,21.0,63,0.00,,,0.00,meteohub,2013-01-27 02:30:00,
2013-01-26 21:35:00,28.6,17.6,30.37,North,0,5.0,21.0,63,0.00,,,0.00,meteohub,2013-01-27 02:35:00,
2013-01-26 21:40:00,28.4,17.4,30.37,NW,315,4.0,18.0,63,0.00,,,0.00,meteohub,2013-01-27 02:40:00,
2013-01-26 21:45:00,28.4,17.4,30.37,West,270,4.0,14.0,63,0.00,,,0.00,meteohub,2013-01-27 02:45:00,
2013-01-26 21:50:00,28.0,16.0,30.37,East,90,4.0,11.0,60,0.00,,,0.00,meteohub,2013-01-27 02:50:00,
2013-01-26 21:55:00,28.0,16.3,30.38,South,180,5.0,7.0,61,0.00,,,0.00,meteohub,2013-01-27 02:55:00,
2013-01-26 22:00:00,27.9,15.8,30.39,NE,45,4.0,7.0,60,0.00,,,0.00,meteohub,2013-01-27 03:00:00,
2013-01-26 22:05:00,28.0,16.0,30.39,North,0,5.0,11.0,60,0.00,,,0.00,meteohub,2013-01-27 03:05:00,
2013-01-26 22:10:00,28.2,15.8,30.39,North,0,7.0,16.0,59,0.00,,,0.00,meteohub,2013-01-27 03:10:00,
2013-01-26 22:15:00,28.2,15.8,30.39,NE,45,4.0,16.0,59,0.00,,,0.00,meteohub,2013-01-27 03:15:00,
2013-01-26 22:20:00,28.2,15.8,30.40,North,0,10.0,16.0,59,0.00,,,0.00,meteohub,2013-01-27 03:20:00,
2013-01-26 22:25:00,28.2,15.8,30.40,North,0,4.0,10.0,59,0.00,,,0.00,meteohub,2013-01-27 03:25:00,
2013-01-26 22:30:00,28.2,15.8,30.40,North,0,11.0,11.0,59,0.00,,,0.00,meteohub,2013-01-27 03:30:00,
2013-01-26 22:35:00,28.0,15.6,30.40,North,0,3.0,11.0,59,0.00,,,0.00,meteohub,2013-01-27 03:35:00,
2013-01-26 22:40:00,27.9,15.4,30.40,South,180,4.0,11.0,59,0.00,,,0.00,meteohub,2013-01-27 03:40:00,
2013-01-26 22:45:00,27.7,15.6,30.40,East,90,2.0,11.0,60,0.00,,,0.00,meteohub,2013-01-27 03:45:00,
2013-01-26 22:50:00,27.3,15.3,30.40,NE,45,2.0,4.0,60,0.00,,,0.00,meteohub,2013-01-27 03:50:00,
2013-01-26 22:55:00,27.1,15.1,30.41,NW,315,6.0,6.0,60,0.00,,,0.00,meteohub,2013-01-27 03:55:00,
2013-01-26 23:00:00,27.3,15.6,30.41,North,0,8.0,10.0,61,0.00,,,0.00,meteohub,2013-01-27 04:00:00,
2013-01-26 23:05:00,27.3,15.6,30.41,North,0,8.0,10.0,61,0.00,,,0.00,meteohub,2013-01-27 04:05:00,
2013-01-26 23:10:00,27.5,15.8,30.41,SW,225,3.0,10.0,61,0.00,,,0.00,meteohub,2013-01-27 04:10:00,
2013-01-26 23:15:00,27.5,15.8,30.41,NW,315,8.0,8.0,61,0.00,,,0.00,meteohub,2013-01-27 04:15:00,
2013-01-26 23:20:00,27.3,15.6,30.41,East,90,4.0,8.0,61,0.00,,,0.00,meteohub,2013-01-27 04:20:00,
2013-01-26 23:25:00,27.3,15.6,30.42,SE,135,3.0,8.0,61,0.00,,,0.00,meteohub,2013-01-27 04:25:00,
2013-01-26 23:30:00,27.1,15.4,30.42,West,270,2.0,8.0,61,0.00,,,0.00,meteohub,2013-01-27 04:30:00,
2013-01-26 23:35:00,27.1,15.4,30.42,NW,315,3.0,7.0,61,0.00,,,0.00,meteohub,2013-01-27 04:35:00,
2013-01-26 23:40:00,27.3,15.6,30.42,NE,45,2.0,7.0,61,0.00,,,0.00,meteohub,2013-01-27 04:40:00,
2013-01-26 23:46:00,27.1,15.4,30.42,SE,135,2.0,7.0,61,0.00,,,0.00,meteohub,2013-01-27 04:46:00,
2013-01-26 23:51:00,27.0,15.3,30.42,North,0,6.0,7.0,61,0.00,,,0.00,meteohub,2013-01-27 04:51:00,
2013-01-26 23:56:00,27.0,15.3,30.42,East,90,4.0,7.0,61,0.00,,,0.00,meteohub,2013-01-27 04:56:00,